Data for 05/13/2007

Time Sea-Level Adjusted Pressure Absolute Pressure Temperature Relative Humidity Dew Point   
(mb) (inHg) (mb) (inHg) (C) (F) (%) (C) (F)
00:05 1014 29.94 843 24.89 16.3 61.4 33 0.1 32.1
00:10 1014 29.94 843 24.89 16.8 62.2 32 -0.1 31.9
00:15 1014 29.94 844 24.92 17.2 63 33 0.7 33.3
00:20 1014 29.94 844 24.92 16.6 61.9 36 1.6 34.9
00:25 1014 29.94 844 24.92 16.2 61.2 37 1.7 35
00:30 1015 29.97 844 24.92 16.3 61.4 38 2.2 35.9
00:35 1015 29.97 844 24.92 16.3 61.4 38 2.3 36.1
00:40 1015 29.97 844 24.92 15.9 60.6 39 2.1 35.8
00:45 1015 29.97 844 24.92 16.1 60.9 39 2.3 36.1
00:50 1015 29.97 844 24.92 15.7 60.3 40 2.4 36.4
00:55 1015 29.97 844 24.92 15.6 60.1 41 2.6 36.7
01:00 1015 29.97 844 24.92 15.6 60 41 2.5 36.5
01:05 1015 29.97 844 24.92 15.5 59.8 42 2.8 37.1
01:10 1015 29.97 844 24.92 15.5 59.9 42 2.7 36.9
01:15 1015 29.97 844 24.92 16 60.8 41 2.9 37.2
01:20 1015 29.97 844 24.92 16 60.7 41 2.9 37.3
01:25 1015 29.97 844 24.92 15.7 60.3 41 2.7 36.8
01:30 1015 29.97 844 24.92 15.4 59.8 43 3 37.3
01:35 1015 29.97 844 24.92 15.1 59.2 44 2.9 37.2
01:40 1015 29.97 844 24.92 14.9 58.8 45 3.1 37.5
01:45 1015 29.97 844 24.92 14.7 58.4 45 2.9 37.1
01:50 1015 29.97 844 24.92 14.9 58.9 44 2.8 37
01:55 1015 29.97 844 24.92 15 59 43 2.6 36.7
02:00 1015 29.97 844 24.92 15.1 59.2 43 2.8 37
02:05 1015 29.97 844 24.92 15 59.1 44 3 37.4
02:10 1015 29.97 844 24.92 15.1 59.2 44 3 37.3
02:15 1015 29.97 844 24.92 15.1 59.2 44 2.9 37.2
02:20 1015 29.97 844 24.92 15 59 45 3.1 37.6
02:25 1015 29.97 844 24.92 14.9 58.8 44 3 37.4
02:30 1015 29.97 844 24.92 15.1 59.2 48 4.2 39.6
02:35 1015 29.97 844 24.92 14.4 57.9 48 3.6 38.5
02:40 1015 29.97 844 24.92 13.6 56.4 50 3.4 38.1
02:45 1015 29.97 844 24.92 13.4 56 50 3.1 37.7
02:50 1015 29.97 844 24.92 13.2 55.8 50 3.1 37.7
02:55 1015 29.97 844 24.92 13.1 55.5 50 2.9 37.3
03:00 1015 29.97 844 24.92 13 55.4 50 2.9 37.2
03:05 1015 29.97 844 24.92 12.7 54.9 51 2.9 37.2
03:10 1015 29.97 844 24.92 12.3 54.2 52 2.7 36.9
03:15 1015 29.97 844 24.92 11.8 53.2 54 2.7 36.9
03:20 1015 29.97 844 24.92 12 53.6 50 2 35.5
03:25 1015 29.97 844 24.92 12.6 54.8 52 3 37.4
03:30 1015 29.97 844 24.92 12.5 54.5 53 3.4 38
03:35 1015 29.97 844 24.92 12.2 53.9 54 3.3 37.9
03:40 1015 29.97 844 24.92 12.2 53.9 54 3.2 37.8
03:45 1015 29.97 844 24.92 12.3 54.1 53 3.1 37.6
03:50 1015 29.97 844 24.92 12.3 54.2 53 3.1 37.6
03:55 1015 29.97 844 24.92 12.3 54.2 54 3.3 37.9
04:00 1015 29.97 844 24.92 12.4 54.3 53 3 37.5
04:05 1015 29.97 844 24.92 12.7 54.8 52 3.2 37.7
04:10 1015 29.97 844 24.92 12.5 54.5 53 3.2 37.8
04:15 1015 29.97 844 24.92 12.4 54.2 53 3.2 37.8
04:20 1015 29.97 844 24.92 12.4 54.2 53 3.2 37.8
04:25 1015 29.97 844 24.92 12.4 54.3 53 3.2 37.8
04:30 1015 29.97 844 24.92 12.5 54.5 53 3.3 38
04:35 1015 29.97 844 24.92 12.5 54.5 53 3.3 37.9
04:40 1015 29.97 844 24.92 12.4 54.4 53 3.1 37.6
04:45 1015 29.97 844 24.92 12.4 54.3 53 3.3 37.9
04:50 1015 29.97 844 24.92 12.4 54.3 54 3.4 38.1
04:55 1015 29.97 844 24.92 12.3 54.1 54 3.3 37.9
05:00 1015 29.97 845 24.95 12.2 53.9 55 3.4 38.1
05:05 1015 29.97 844 24.92 12 53.6 55 3.4 38.1
05:10 1015 29.97 844 24.92 12 53.6 55 3.4 38.1
05:15 1015 29.97 844 24.92 12 53.5 56 3.6 38.4
05:20 1015 29.97 844 24.92 12 53.6 56 3.6 38.5
05:25 1015 29.97 845 24.95 11.9 53.4 57 3.7 38.7
05:30 1015 29.97 845 24.95 11.6 52.9 57 3.4 38.1
05:35 1015 29.97 844 24.92 11.8 53.2 56 3.4 38.1
05:40 1015 29.97 844 24.92 11.9 53.5 56 3.4 38.1
05:45 1015 29.97 844 24.92 12 53.6 55 3.3 37.9
05:50 1015 29.97 845 24.95 12.1 53.7 55 3.3 38
05:55 1015 29.97 845 24.95 11.9 53.4 56 3.4 38.2
06:00 1015 29.97 844 24.92 11.5 52.7 57 3.4 38.1
06:05 1015 29.97 844 24.92 11.4 52.6 58 3.5 38.3
06:10 1015 29.97 844 24.92 11.4 52.4 57 3.3 37.9
06:15 1015 29.97 844 24.92 11.6 52.8 57 3.4 38
06:20 1015 29.97 844 24.92 11.8 53.2 56 3.2 37.8
06:25 1015 29.97 844 24.92 12.3 54.1 54 3.3 38
06:30 1015 29.97 844 24.92 12.2 53.9 56 3.6 38.5
06:35 1015 29.97 844 24.92 12.1 53.8 55 3.5 38.3
06:40 1015 29.97 844 24.92 12.3 54.1 55 3.6 38.6
06:45 1015 29.97 845 24.95 12.3 54.1 57 4 39.1
06:50 1015 29.97 845 24.95 12.2 53.9 57 4.1 39.3
06:55 1015 29.97 845 24.95 12.1 53.9 58 4.2 39.5
07:00 1015 29.97 844 24.92 12.4 54.4 57 4.3 39.7
07:05 1015 29.97 845 24.95 12.6 54.8 57 4.5 40.1
07:10 1015 29.97 845 24.95 12.9 55.3 57 4.6 40.3
07:15 1016 30 845 24.95 13.5 56.4 54 4.6 40.3
07:20 1016 30 845 24.95 13.8 56.8 53 4.4 39.9
07:25 1015 29.97 845 24.95 14.4 57.8 51 4.4 39.9
07:30 1015 29.97 845 24.95 14.8 58.6 50 4.5 40
07:35 1015 29.97 845 24.95 14.9 58.9 50 4.6 40.3
07:40 1015 29.97 845 24.95 15.2 59.4 50 4.9 40.8
07:45 1015 29.97 845 24.95 15.5 59.9 49 4.9 40.8
07:50 1015 29.97 845 24.95 15.7 60.3 50 5.3 41.5
07:55 1015 29.97 845 24.95 15.4 59.7 52 5.7 42.3
08:00 1015 29.97 845 24.95 15.5 59.8 55 6.5 43.7
08:05 1015 29.97 845 24.95 16 60.7 57 7.5 45.4
08:10 1015 29.97 844 24.92 16.3 61.3 57 7.8 46.1
08:15 1015 29.97 845 24.95 16.4 61.5 49 5.7 42.3
08:20 1015 29.97 845 24.95 16.2 61.1 49 5.4 41.7
08:25 1015 29.97 844 24.92 16.6 61.8 47 5.3 41.5
08:30 1015 29.97 844 24.92 16.9 62.5 46 5.3 41.5
08:35 1015 29.97 844 24.92 16 60.9 49 5.3 41.6
08:40 1015 29.97 845 24.95 16.3 61.3 50 5.9 42.5
08:45 1016 30 845 24.95 15.6 60.2 52 6 42.9
08:50 1016 30 845 24.95 15.1 59.3 54 6.1 42.9
08:55 1016 30 845 24.95 15.2 59.3 55 6.2 43.1
09:00 1016 30 845 24.95 15.2 59.4 53 5.7 42.3
09:05 1016 30 845 24.95 14.8 58.7 50 4.7 40.4
09:10 1016 30 845 24.95 14.9 58.8 50 4.7 40.5
09:15 1016 30 845 24.95 14.9 58.8 52 5.1 41.2
09:20 1016 30 845 24.95 15 58.9 53 5.5 42
09:25 1016 30 845 24.95 14.8 58.7 54 5.7 42.3
09:30 1016 30 845 24.95 15.4 59.7 52 5.8 42.5
09:35 1016 30 845 24.95 15.8 60.4 53 6.4 43.5
09:40 1016 30 845 24.95 15.9 60.6 51 5.9 42.6
09:45 1016 30 845 24.95 16.3 61.4 50 6.1 43
09:50 1016 30 845 24.95 16.2 61.1 52 6.4 43.5
09:55 1016 30 845 24.95 16.1 60.9 52 6.4 43.5
10:00 1016 30 845 24.95 16.1 61.1 51 6.1 43.1
10:05 1016 30 845 24.95 16.2 61.1 50 5.9 42.6
10:10 1016 30 845 24.95 16.6 61.8 49 5.9 42.6
10:15 1016 30 845 24.95 16.9 62.4 49 6.1 43
10:20 1016 30 845 24.95 17.4 63.3 46 5.9 42.5
10:25 1016 30 845 24.95 17.8 64.1 45 5.8 42.5
10:30 1016 30 845 24.95 17.8 64.1 45 5.9 42.6
10:35 1016 30 845 24.95 18 64.4 44 5.8 42.5
10:40 1016 30 845 24.95 18.5 65.3 45 6.5 43.7
10:45 1016 30 845 24.95 18.9 66 42 5.7 42.3
10:50 1016 30 845 24.95 19.3 66.7 42 6.1 43.1
10:55 1016 30 845 24.95 19.6 67.2 41 6.2 43.2
11:00 1016 30 845 24.95 19.6 67.3 42 6.5 43.8
11:05 1016 30 845 24.95 19.8 67.6 42 6.5 43.7
11:10 1016 30 845 24.95 19.3 66.7 44 6.8 44.3
11:15 1016 30 845 24.95 18.6 65.5 44 6.3 43.3
11:20 1016 30 845 24.95 19.3 66.7 41 6 42.8
11:25 1016 30 845 24.95 19.4 66.9 43 6.6 43.9
11:30 1016 30 845 24.95 20 67.9 41 6.6 44
11:35 1016 30 845 24.95 19.8 67.7 42 6.5 43.8
11:40 1016 30 845 24.95 20.2 68.4 40 6.4 43.5
11:45 1016 30 845 24.95 20 68.1 42 6.9 44.5
11:50 1016 30 845 24.95 20 68 43 7.1 44.8
11:55 1016 30 845 24.95 19.7 67.4 44 7.3 45.2
12:00 1016 30 845 24.95 19.9 67.8 43 7.1 44.8
12:05 1016 30 845 24.95 20.3 68.5 44 7.7 45.8
12:10 1016 30 845 24.95 20.6 69.1 39 6.4 43.5
12:15 1015 29.97 845 24.95 21.4 70.5 39 6.9 44.4
12:20 1015 29.97 845 24.95 21.4 70.6 39 7.1 44.7
12:25 1015 29.97 845 24.95 21.3 70.4 39 7.1 44.8
12:30 1015 29.97 845 24.95 21.3 70.3 41 7.5 45.5
12:35 1015 29.97 845 24.95 21.5 70.7 38 6.6 43.8
12:40 1015 29.97 845 24.95 21 69.9 39 6.9 44.4
12:45 1015 29.97 845 24.95 21.7 71.1 37 6.8 44.2
12:50 1015 29.97 844 24.92 21.9 71.4 37 6.8 44.3
12:55 1015 29.97 844 24.92 21.4 70.5 40 7.4 45.3
13:00 1015 29.97 844 24.92 21.6 70.9 39 7.4 45.3
13:05 1015 29.97 844 24.92 21.9 71.4 38 7.2 44.9
13:10 1015 29.97 844 24.92 22.1 71.7 38 7.1 44.8
13:15 1015 29.97 844 24.92 21.9 71.4 37 6.8 44.3
13:20 1015 29.97 844 24.92 22.1 71.8 38 7.3 45.1
13:25 1015 29.97 844 24.92 22 71.5 37 6.9 44.4
13:30 1015 29.97 844 24.92 22.1 71.8 37 7 44.6
13:35 1015 29.97 844 24.92 22.4 72.3 36 6.7 44.1
13:40 1015 29.97 844 24.92 22.2 72 38 7.4 45.4
13:45 1015 29.97 844 24.92 21.7 71 37 6.6 43.8
13:50 1015 29.97 844 24.92 22.4 72.3 35 6.5 43.8
13:55 1015 29.97 844 24.92 22.7 72.8 37 7.3 45.2
14:00 1015 29.97 844 24.92 22.4 72.3 36 6.8 44.3
14:05 1015 29.97 844 24.92 22.5 72.4 35 6.6 44
14:10 1015 29.97 844 24.92 22.9 73.1 35 6.9 44.4
14:15 1015 29.97 844 24.92 22.7 72.8 37 7.6 45.7
14:20 1015 29.97 844 24.92 21.9 71.4 38 7.1 44.8
14:25 1014 29.94 844 24.92 21.1 70 40 7.1 44.7
14:30 1015 29.97 844 24.92 21.2 70.1 39 6.8 44.3
14:35 1015 29.97 844 24.92 20.8 69.5 40 7.1 44.7
14:40 1015 29.97 844 24.92 20.5 68.9 41 7 44.6
14:45 1015 29.97 844 24.92 20.1 68.1 41 6.7 44.1
14:50 1015 29.97 844 24.92 19.8 67.6 42 6.8 44.2
14:55 1014 29.94 844 24.92 19.6 67.2 42 6.6 43.8
15:00 1014 29.94 843 24.89 19.3 66.8 43 6.7 44
15:05 1014 29.94 844 24.92 18.9 66.1 43 6.3 43.3
15:10 1015 29.97 844 24.92 18 64.4 46 6.2 43.2
15:15 1015 29.97 844 24.92 17.6 63.6 44 5.4 41.7
15:20 1016 30 846 24.98 16.6 61.9 52 6.9 44.4
15:25 1017 30.03 846 24.98 14.3 57.8 65 7.9 46.2
15:30 1017 30.03 846 24.98 12.9 55.3 70 7.6 45.7
15:35 1016 30 845 24.95 13.1 55.5 73 8.3 47
15:40 1017 30.03 846 24.98 13.6 56.5 67 7.6 45.7
15:45 1017 30.03 846 24.98 13.6 56.5 67 7.7 45.9
15:50 1017 30.03 846 24.98 14.2 57.5 66 8 46.5
15:55 1017 30.03 846 24.98 14.4 57.8 64 7.6 45.8
16:00 1017 30.03 846 24.98 14.5 58.1 63 7.5 45.5
16:05 1017 30.03 846 24.98 14.3 57.8 65 7.8 46.1
16:10 1017 30.03 847 25.01 14.4 57.9 64 7.8 46.1
16:15 1017 30.03 847 25.01 14 57.1 66 7.9 46.2
16:20 1018 30.06 847 25.01 13.4 56.2 69 7.9 46.2
16:25 1018 30.06 847 25.01 12.9 55.3 69 7.5 45.5
16:30 1018 30.06 847 25.01 12.7 54.9 69 7.3 45.1
16:35 1018 30.06 847 25.01 12.4 54.3 75 8.1 46.6
16:40 1019 30.09 848 25.04 11.5 52.8 81 8.5 47.2
16:45 1019 30.09 848 25.04 11.1 51.9 84 8.5 47.3
16:50 1018 30.06 848 25.04 10.9 51.7 85 8.5 47.3
16:55 1018 30.06 848 25.04 11.2 52.2 81 8 46.5
17:00 1018 30.06 847 25.01 11.3 52.4 83 8.6 47.5
17:05 1018 30.06 847 25.01 12 53.5 80 8.7 47.7
17:10 1018 30.06 847 25.01 12.9 55.2 76 8.8 47.8
17:15 1018 30.06 847 25.01 14 57.3 70 8.7 47.7
17:20 1017 30.03 847 25.01 14.5 58.2 70 9.1 48.4
17:25 1017 30.03 847 25.01 14.2 57.5 71 9 48.2
17:30 1017 30.03 846 24.98 13.5 56.2 72 8.5 47.3
17:35 1017 30.03 846 24.98 13.2 55.8 70 7.9 46.3
17:40 1017 30.03 846 24.98 12.5 54.6 75 8.2 46.8
17:45 1017 30.03 846 24.98 12.5 54.4 72 7.7 45.8
17:50 1017 30.03 846 24.98 12.6 54.6 71 7.6 45.6
17:55 1017 30.03 846 24.98 12.7 54.8 73 8 46.5
18:00 1017 30.03 846 24.98 12.7 54.8 73 8.1 46.5
18:05 1017 30.03 846 24.98 12.4 54.3 77 8.6 47.4
18:10 1017 30.03 846 24.98 12.4 54.4 76 8.3 47
18:15 1017 30.03 846 24.98 13.1 55.6 74 8.7 47.7
18:20 1017 30.03 846 24.98 13.5 56.3 71 8.4 47.2
18:25 1017 30.03 846 24.98 13.7 56.6 70 8.4 47.1
18:30 1017 30.03 846 24.98 13.7 56.7 70 8.4 47
18:35 1017 30.03 847 25.01 13.7 56.6 70 8.3 47
18:40 1018 30.06 847 25.01 13.6 56.4 70 8.3 46.9
18:45 1018 30.06 847 25.01 13.4 56.2 71 8.4 47
18:50 1018 30.06 847 25.01 13.2 55.8 72 8.4 47.1
18:55 1018 30.06 847 25.01 13 55.4 73 8.4 47.2
19:00 1018 30.06 847 25.01 12.6 54.7 81 9.5 49
19:05 1018 30.06 847 25.01 12.1 53.9 88 10.1 50.3
19:10 1018 30.06 847 25.01 11.8 53.2 90 10.2 50.3
19:15 1018 30.06 848 25.04 11.5 52.7 91 10.1 50.3
19:20 1018 30.06 848 25.04 11.3 52.3 92 10 50
19:25 1018 30.06 848 25.04 11 51.9 92 9.8 49.6
19:30 1019 30.09 848 25.04 10.8 51.5 92 9.6 49.3
19:35 1019 30.09 848 25.04 10.9 51.5 92 9.6 49.2
19:40 1019 30.09 848 25.04 10.8 51.5 90 9.3 48.8
19:45 1019 30.09 848 25.04 10.7 51.3 92 9.4 49
19:50 1019 30.09 848 25.04 10.8 51.4 91 9.3 48.7
19:55 1019 30.09 848 25.04 10.5 50.9 91 9.1 48.4
20:00 1018 30.06 847 25.01 10.4 50.8 90 8.8 47.9
20:05 1018 30.06 848 25.04 10.1 50.2 91 8.7 47.6
20:10 1018 30.06 848 25.04 10.1 50.1 91 8.7 47.6
20:15 1019 30.09 848 25.04 10.3 50.5 91 8.8 47.8
20:20 1019 30.09 848 25.04 10.4 50.8 90 8.9 48
20:25 1019 30.09 848 25.04 10.5 50.9 90 8.9 48
20:30 1019 30.09 848 25.04 10.5 50.8 91 9.1 48.4
20:35 1019 30.09 848 25.04 10.3 50.6 92 9.1 48.3
20:40 1019 30.09 848 25.04 10.1 50.2 86 7.8 46
20:45 1019 30.09 848 25.04 9.9 49.8 85 7.5 45.5
20:50 1019 30.09 848 25.04 9.7 49.5 86 7.5 45.6
20:55 1019 30.09 848 25.04 9.6 49.4 87 7.5 45.6
21:00 1019 30.09 848 25.04 9.6 49.2 87 7.5 45.6
21:05 1020 30.12 849 25.07 9.5 49.2 86 7.3 45.2
21:10 1020 30.12 849 25.07 9.6 49.3 86 7.3 45.2
21:15 1019 30.09 849 25.07 9.6 49.3 85 7.3 45.1
21:20 1020 30.12 849 25.07 9.7 49.4 86 7.4 45.3
21:25 1020 30.12 849 25.07 9.5 49.2 86 7.3 45.2
21:30 1020 30.12 849 25.07 9.4 48.9 87 7.3 45.1
21:35 1020 30.12 849 25.07 9.2 48.5 90 7.6 45.6
21:40 1020 30.12 849 25.07 8.9 48.1 90 7.3 45.2
21:45 1020 30.12 850 25.1 9 48.2 90 7.4 45.3
21:50 1020 30.12 849 25.07 9.1 48.3 89 7.4 45.3
21:55 1020 30.12 850 25.1 9.2 48.6 89 7.5 45.6
22:00 1021 30.15 850 25.1 9.3 48.8 89 7.6 45.6
22:05 1021 30.15 850 25.1 9.3 48.7 87 7.2 45
22:10 1021 30.15 850 25.1 9.1 48.3 88 7.1 44.8
22:15 1021 30.15 850 25.1 9 48.2 88 7.2 44.9
22:20 1021 30.15 850 25.1 9.1 48.4 88 7.2 44.9
22:25 1021 30.15 850 25.1 9.1 48.3 88 7.1 44.9
22:30 1021 30.15 850 25.1 8.9 48.1 88 7.1 44.8
22:35 1021 30.15 851 25.13 9 48.2 90 7.4 45.3
22:40 1021 30.15 851 25.13 8.9 48.1 89 7.2 45
22:45 1021 30.15 851 25.13 8.9 48 87 6.8 44.3
22:50 1021 30.15 851 25.13 8.9 48 87 6.8 44.2
22:55 1022 30.18 851 25.13 8.9 48 87 6.9 44.4
23:00 1022 30.18 851 25.13 8.7 47.6 86 6.5 43.6
23:05 1022 30.18 851 25.13 8.4 47.2 87 6.5 43.6
23:10 1022 30.18 851 25.13 8.4 47.1 87 6.4 43.5
23:15 1022 30.18 851 25.13 8.3 46.9 88 6.3 43.4
23:20 1022 30.18 851 25.13 8.2 46.8 90 6.7 44.1
23:25 1022 30.18 851 25.13 8.3 46.9 92 7 44.7
23:30 1022 30.18 851 25.13 8.2 46.8 89 6.5 43.6
23:35 1022 30.18 851 25.13 8.2 46.7 90 6.7 44.1
23:40 1022 30.18 851 25.13 8.2 46.7 85 5.9 42.5
23:45 1022 30.18 851 25.13 8.4 47 86 6.2 43.1
23:50 1022 30.18 851 25.13 8.2 46.8 86 6 42.7
23:55 1022 30.18 851 25.13 8.3 46.9 87 6.1 43.1
24:00 1022 30.18 851 25.13 8 46.4 87 5.9 42.7